createdAt,value
2017-10-15T00:02:19.537Z,17.19
2017-10-15T00:05:25.452Z,17.29
2017-10-15T00:08:31.341Z,17.39
2017-10-15T00:11:37.434Z,17.17
2017-10-15T00:14:43.226Z,17.14
2017-10-15T00:17:49.022Z,17.28
2017-10-15T00:20:58.004Z,17.29
2017-10-15T00:24:04.100Z,17.27
2017-10-15T00:27:19.985Z,17.21
2017-10-15T00:30:26.901Z,17.12
2017-10-15T00:33:34.092Z,17.11
2017-10-15T00:36:39.561Z,17.04
2017-10-15T00:39:45.700Z,16.93
2017-10-15T00:42:51.409Z,16.86
2017-10-15T00:45:57.020Z,16.75
2017-10-15T00:49:04.850Z,16.64
2017-10-15T00:52:11.857Z,16.50
2017-10-15T00:55:18.049Z,16.40
2017-10-15T00:58:24.052Z,16.26
2017-10-15T01:01:30.049Z,16.12
2017-10-15T01:04:36.192Z,16.07
2017-10-15T01:07:41.585Z,16.00
2017-10-15T01:10:47.633Z,15.99
2017-10-15T01:13:53.665Z,15.87
2017-10-15T01:16:59.749Z,15.81
2017-10-15T01:20:07.941Z,15.73
2017-10-15T01:23:13.907Z,15.65
2017-10-15T01:26:24.079Z,15.64
2017-10-15T01:29:29.765Z,15.62
2017-10-15T01:32:36.622Z,15.54
2017-10-15T01:35:43.510Z,15.33
2017-10-15T01:38:49.626Z,15.29
2017-10-15T01:41:55.511Z,15.24
2017-10-15T01:45:01.423Z,15.28
2017-10-15T01:48:07.510Z,15.29
2017-10-15T01:51:13.443Z,15.29
2017-10-15T01:54:18.741Z,15.26
2017-10-15T01:57:24.682Z,15.20
2017-10-15T02:00:30.747Z,15.03
2017-10-15T02:03:36.779Z,15.00
2017-10-15T02:06:42.682Z,14.96
2017-10-15T02:09:49.520Z,15.01
2017-10-15T02:12:55.393Z,14.99
2017-10-15T02:16:02.244Z,14.99
2017-10-15T02:19:08.157Z,15.01
2017-10-15T02:22:13.930Z,15.04
2017-10-15T02:25:19.849Z,15.01
2017-10-15T02:28:26.042Z,15.02
2017-10-15T02:31:31.839Z,14.98
2017-10-15T02:34:37.740Z,14.94
2017-10-15T02:37:43.846Z,14.94
2017-10-15T02:40:49.811Z,14.95
2017-10-15T02:43:55.987Z,14.92
2017-10-15T02:47:02.118Z,14.93
2017-10-15T02:50:08.096Z,14.91
2017-10-15T02:53:14.083Z,14.95
2017-10-15T02:56:19.886Z,14.97
2017-10-15T02:59:25.827Z,14.98
2017-10-15T03:02:31.819Z,14.91
2017-10-15T03:05:37.651Z,14.88
2017-10-15T03:08:43.584Z,14.86
2017-10-15T03:11:49.734Z,14.81
2017-10-15T03:14:55.641Z,14.62
2017-10-15T03:18:01.559Z,14.65
2017-10-15T03:21:07.516Z,14.60
2017-10-15T03:24:13.330Z,14.56
2017-10-15T03:27:19.313Z,14.52
2017-10-15T03:30:26.181Z,14.44
2017-10-15T03:33:32.243Z,14.39
2017-10-15T03:36:38.196Z,14.41
2017-10-15T03:39:44.207Z,14.42
2017-10-15T03:42:50.147Z,14.47
2017-10-15T03:45:56.051Z,14.48
2017-10-15T03:49:01.238Z,14.46
2017-10-15T03:52:07.332Z,14.43
2017-10-15T03:55:13.292Z,14.41
2017-10-15T03:58:19.230Z,14.40
2017-10-15T04:01:25.206Z,14.43
2017-10-15T04:04:31.203Z,14.41
2017-10-15T04:07:37.139Z,14.35
2017-10-15T04:10:43.084Z,14.38
2017-10-15T04:13:48.849Z,14.37
2017-10-15T04:16:54.963Z,14.38
2017-10-15T04:20:01.691Z,14.33
2017-10-15T04:23:07.442Z,14.33
2017-10-15T04:26:13.314Z,14.27
2017-10-15T04:29:19.495Z,14.19
2017-10-15T04:32:26.219Z,14.10
2017-10-15T04:35:32.140Z,14.05
2017-10-15T04:38:38.036Z,14.09
2017-10-15T04:41:44.098Z,14.02
2017-10-15T04:44:49.956Z,13.95
2017-10-15T04:47:55.879Z,13.90
2017-10-15T04:51:02.751Z,13.86
2017-10-15T04:54:08.663Z,13.82
2017-10-15T04:57:14.593Z,13.76
2017-10-15T05:00:20.407Z,13.74
2017-10-15T05:03:25.671Z,13.74
2017-10-15T05:06:32.517Z,13.75
2017-10-15T05:09:38.695Z,13.75
2017-10-15T05:12:44.897Z,13.77
2017-10-15T05:15:50.624Z,13.78
2017-10-15T05:18:56.674Z,13.75
2017-10-15T05:22:02.489Z,13.54
2017-10-15T05:25:08.465Z,13.62
2017-10-15T05:28:14.303Z,13.36
2017-10-15T05:31:20.406Z,13.44
2017-10-15T05:34:26.251Z,13.22
2017-10-15T05:37:32.375Z,12.92
2017-10-15T05:40:38.154Z,13.20
2017-10-15T05:43:44.021Z,13.22
2017-10-15T05:46:49.772Z,13.34
2017-10-15T05:52:47.710Z,13.10
2017-10-15T05:55:53.194Z,13.29
2017-10-15T05:58:58.808Z,13.00
2017-10-15T06:02:05.303Z,13.16
2017-10-15T06:05:11.915Z,13.42
2017-10-15T06:08:18.510Z,13.72
2017-10-15T06:11:24.305Z,13.91
2017-10-15T06:14:29.851Z,14.00
2017-10-15T06:17:35.474Z,14.08
2017-10-15T06:20:41.204Z,14.02
2017-10-15T06:23:47.871Z,14.14
2017-10-15T06:26:54.571Z,14.28
2017-10-15T06:30:01.196Z,14.39
2017-10-15T06:33:07.095Z,14.49
2017-10-15T06:36:12.722Z,14.62
2017-10-15T06:39:19.522Z,14.80
2017-10-15T06:42:25.253Z,14.99
2017-10-15T06:45:33.020Z,15.11
2017-10-15T06:51:21.878Z,15.31
2017-10-15T06:54:27.561Z,15.53
2017-10-15T06:57:33.401Z,15.85
2017-10-15T07:00:41.404Z,16.14
2017-10-15T07:03:46.950Z,16.41
2017-10-15T07:06:52.900Z,16.64
2017-10-15T07:09:58.780Z,16.88
2017-10-15T07:13:04.723Z,17.03
2017-10-15T07:16:10.548Z,17.10
2017-10-15T07:19:16.227Z,17.28
2017-10-15T07:22:22.042Z,17.52
2017-10-15T07:25:27.874Z,17.67
2017-10-15T07:28:33.778Z,17.63
2017-10-15T07:31:39.439Z,17.87
2017-10-15T07:34:49.452Z,17.89
2017-10-15T07:37:57.259Z,17.98
2017-10-15T07:41:03.760Z,18.54
2017-10-15T07:44:11.920Z,18.82
2017-10-15T07:47:17.924Z,18.75
2017-10-15T07:50:29.903Z,18.93
2017-10-15T07:53:41.437Z,19.15
2017-10-15T07:56:54.208Z,19.15
2017-10-15T08:00:02.532Z,19.32
2017-10-15T08:03:09.247Z,19.30
2017-10-15T08:06:26.946Z,19.57
2017-10-15T08:09:38.663Z,19.65
2017-10-15T08:12:59.370Z,19.77
2017-10-15T08:19:23.349Z,20.21
2017-10-15T08:22:30.288Z,20.33
2017-10-15T08:25:45.131Z,20.26
2017-10-15T08:28:53.011Z,20.12
2017-10-15T08:31:59.647Z,20.19
2017-10-15T08:35:07.679Z,20.37
2017-10-15T08:38:16.462Z,20.39
2017-10-15T08:41:22.607Z,20.26
2017-10-15T08:44:28.207Z,20.43
2017-10-15T08:47:34.176Z,20.66
2017-10-15T08:50:39.842Z,20.65
2017-10-15T08:53:45.431Z,20.74
2017-10-15T08:56:52.317Z,20.66
2017-10-15T08:59:57.852Z,20.39
2017-10-15T09:03:03.627Z,20.82
2017-10-15T09:06:10.367Z,21.14
2017-10-15T09:09:16.051Z,21.12
2017-10-15T09:12:22.728Z,21.22
2017-10-15T09:15:32.531Z,21.27
2017-10-15T09:18:38.153Z,21.50
2017-10-15T09:21:43.983Z,21.52
2017-10-15T09:24:50.981Z,21.60
2017-10-15T09:28:02.807Z,22.01
2017-10-15T09:31:09.525Z,21.75
2017-10-15T09:34:16.032Z,21.53
2017-10-15T09:37:22.739Z,21.57
2017-10-15T09:40:28.540Z,21.82
2017-10-15T09:43:35.250Z,21.87
2017-10-15T09:46:41.234Z,22.50
2017-10-15T09:49:47.062Z,22.49
2017-10-15T09:52:52.628Z,22.75
2017-10-15T09:55:58.473Z,22.55
2017-10-15T09:59:05.059Z,22.64
2017-10-15T10:02:10.748Z,22.67
2017-10-15T10:05:19.323Z,22.73
2017-10-15T10:08:26.102Z,22.27
2017-10-15T10:11:32.832Z,22.16
2017-10-15T10:14:39.367Z,22.29
2017-10-15T10:21:04.768Z,22.10
2017-10-15T10:24:11.360Z,22.29
2017-10-15T10:27:20.023Z,22.57
2017-10-15T10:30:30.667Z,22.84
2017-10-15T10:33:37.541Z,23.25
2017-10-15T10:36:43.256Z,22.76
2017-10-15T10:39:48.970Z,22.75
2017-10-15T10:42:56.765Z,22.53
2017-10-15T10:46:02.455Z,22.80
2017-10-15T10:49:08.991Z,23.07
2017-10-15T10:52:14.891Z,22.79
2017-10-15T10:55:22.705Z,22.41
2017-10-15T10:58:29.404Z,22.42
2017-10-15T11:01:35.129Z,22.31
2017-10-15T11:04:41.694Z,22.58
2017-10-15T11:07:47.460Z,22.46
2017-10-15T11:14:08.970Z,22.80
2017-10-15T11:17:15.755Z,22.81
2017-10-15T11:20:21.469Z,23.05
2017-10-15T11:23:28.628Z,23.03
2017-10-15T11:26:34.933Z,22.73
2017-10-15T11:29:42.143Z,22.62
2017-10-15T11:32:48.947Z,22.17
2017-10-15T11:35:56.800Z,22.19
2017-10-15T11:39:07.600Z,22.49
2017-10-15T11:42:14.355Z,22.20
2017-10-15T11:45:21.860Z,22.22
2017-10-15T11:48:27.852Z,22.67
2017-10-15T11:51:34.659Z,22.89
2017-10-15T11:54:41.359Z,22.90
2017-10-15T11:57:47.606Z,22.65
2017-10-15T12:00:53.896Z,22.58
2017-10-15T12:04:00.494Z,23.03
2017-10-15T12:07:09.014Z,23.14
2017-10-15T12:10:15.750Z,22.95
2017-10-15T12:13:24.540Z,22.93
2017-10-15T12:16:30.886Z,22.92
2017-10-15T12:19:37.602Z,22.62
2017-10-15T12:22:46.915Z,22.80
2017-10-15T12:25:54.515Z,22.81
2017-10-15T12:29:00.830Z,23.27
2017-10-15T12:32:07.532Z,23.11
2017-10-15T12:35:13.246Z,23.26
2017-10-15T12:38:18.809Z,23.34
2017-10-15T12:41:24.622Z,23.38
2017-10-15T12:44:36.318Z,23.07
2017-10-15T12:47:46.007Z,22.95
2017-10-15T12:54:08.269Z,23.15
2017-10-15T12:57:15.723Z,23.08
2017-10-15T13:00:22.287Z,22.97
2017-10-15T13:03:29.220Z,22.74
2017-10-15T13:06:35.983Z,23.04
2017-10-15T13:09:43.760Z,23.08
2017-10-15T13:12:49.544Z,22.97
2017-10-15T13:15:57.189Z,23.25
2017-10-15T13:19:05.862Z,23.25
2017-10-15T13:24:59.931Z,23.26
2017-10-15T13:28:11.195Z,23.23
2017-10-15T13:31:19.923Z,23.32
2017-10-15T13:34:28.576Z,23.33
2017-10-15T13:37:36.440Z,23.14
2017-10-15T13:40:43.765Z,22.93
2017-10-15T13:43:51.811Z,23.13
2017-10-15T13:47:03.509Z,23.18
2017-10-15T13:50:11.218Z,22.72
2017-10-15T13:53:17.853Z,23.12
2017-10-15T13:56:29.652Z,23.26
2017-10-15T13:59:39.940Z,23.14
2017-10-15T14:02:45.992Z,23.05
2017-10-15T14:05:52.646Z,22.91
2017-10-15T14:11:52.987Z,23.10
2017-10-15T14:14:58.623Z,22.73
2017-10-15T14:18:07.331Z,23.36
2017-10-15T14:21:13.023Z,23.50
2017-10-15T14:24:18.712Z,23.65
2017-10-15T14:27:24.511Z,23.51
2017-10-15T14:30:30.259Z,23.14
2017-10-15T14:33:37.017Z,23.16
2017-10-15T14:36:42.559Z,23.21
2017-10-15T14:39:54.371Z,23.02
2017-10-15T14:43:00.009Z,23.15
2017-10-15T14:46:05.478Z,22.72
2017-10-15T14:49:11.101Z,22.87
2017-10-15T14:52:16.776Z,22.52
2017-10-15T14:55:22.756Z,22.93
2017-10-15T14:58:30.514Z,22.71
2017-10-15T15:01:36.351Z,22.62
2017-10-15T15:04:42.241Z,23.02
2017-10-15T15:07:49.867Z,22.40
2017-10-15T15:10:55.605Z,22.22
2017-10-15T15:14:03.384Z,22.49
2017-10-15T15:17:13.186Z,22.47
2017-10-15T15:20:23.119Z,22.12
2017-10-15T15:23:30.021Z,21.86
2017-10-15T15:26:39.272Z,22.05
2017-10-15T15:29:44.966Z,21.99
2017-10-15T15:33:02.809Z,21.59
2017-10-15T15:36:12.605Z,21.52
2017-10-15T15:39:19.314Z,21.19
2017-10-15T15:42:26.827Z,21.24
2017-10-15T15:45:35.648Z,21.37
2017-10-15T15:48:42.395Z,21.30
2017-10-15T15:51:51.031Z,21.35
2017-10-15T15:54:57.118Z,21.19
2017-10-15T15:58:02.699Z,21.15
2017-10-15T16:01:08.288Z,21.39
2017-10-15T16:04:14.872Z,20.85
2017-10-15T16:07:22.502Z,21.19
2017-10-15T16:10:28.122Z,21.34
2017-10-15T16:13:33.810Z,21.15
2017-10-15T16:16:41.803Z,21.22
2017-10-15T16:19:50.228Z,21.24
2017-10-15T16:22:56.115Z,21.36
2017-10-15T16:26:02.783Z,21.27
2017-10-15T16:29:09.269Z,21.23
2017-10-15T16:32:14.995Z,20.62
2017-10-15T16:35:20.888Z,20.40
2017-10-15T16:38:26.470Z,20.28
2017-10-15T16:41:33.166Z,20.63
2017-10-15T16:44:39.777Z,20.34
2017-10-15T16:47:45.647Z,20.02
2017-10-15T16:50:51.371Z,20.08
2017-10-15T16:53:59.089Z,19.79
2017-10-15T16:57:04.865Z,19.48
2017-10-15T17:00:10.813Z,18.68
2017-10-15T17:06:55.249Z,18.91
2017-10-15T17:10:01.594Z,18.70
2017-10-15T17:13:07.631Z,18.56
2017-10-15T17:16:13.232Z,18.81
2017-10-15T17:19:20.073Z,18.59
2017-10-15T17:22:25.734Z,18.62
2017-10-15T17:32:54.057Z,18.48
2017-10-15T17:35:31.730Z,18.48
2017-10-15T17:38:04.691Z,18.96
2017-10-15T17:40:35.791Z,18.92
2017-10-15T17:43:06.459Z,18.85
2017-10-15T17:50:52.634Z,19.20
2017-10-15T17:53:25.591Z,19.66
2017-10-15T17:55:56.762Z,19.81
2017-10-15T17:58:27.532Z,19.91
2017-10-15T18:00:59.517Z,19.63
2017-10-15T18:03:30.974Z,19.73
2017-10-15T18:06:06.046Z,19.97
2017-10-15T18:08:38.154Z,20.03
2017-10-15T18:11:10.032Z,19.86
2017-10-15T18:13:53.247Z,19.96
2017-10-15T18:16:26.995Z,19.88
2017-10-15T18:19:04.652Z,19.39
2017-10-15T18:21:38.649Z,19.29
2017-10-15T18:24:13.940Z,19.43
2017-10-15T18:26:49.060Z,19.52
2017-10-15T18:29:22.978Z,19.36
2017-10-15T18:34:40.831Z,19.05
2017-10-15T18:37:15.606Z,19.04
2017-10-15T18:39:46.298Z,18.86
2017-10-15T18:42:23.270Z,18.90
2017-10-15T18:45:04.762Z,18.65
2017-10-15T18:47:39.326Z,18.33
2017-10-15T18:52:46.072Z,17.89
2017-10-15T18:55:17.134Z,17.49
2017-10-15T18:57:52.032Z,17.40
2017-10-15T19:00:25.184Z,17.42
2017-10-15T19:02:56.262Z,17.59
2017-10-15T19:05:30.366Z,17.67
2017-10-15T19:08:04.525Z,17.83
2017-10-15T19:10:42.238Z,17.84
2017-10-15T19:13:17.703Z,17.92
2017-10-15T19:15:48.929Z,17.87
2017-10-15T19:18:19.837Z,17.58
2017-10-15T19:21:00.985Z,17.61
2017-10-15T19:23:36.146Z,17.96
2017-10-15T19:26:08.329Z,18.23
2017-10-15T19:28:40.022Z,18.30
2017-10-15T19:31:11.536Z,18.02
2017-10-15T19:33:43.963Z,18.26
2017-10-15T19:36:15.695Z,17.89
2017-10-15T19:38:49.022Z,18.11
2017-10-15T19:41:21.038Z,18.36
2017-10-15T19:43:52.042Z,18.33
2017-10-15T19:46:25.475Z,18.53
2017-10-15T19:48:56.998Z,18.85
2017-10-15T19:51:29.251Z,18.77
2017-10-15T19:54:04.286Z,18.61
2017-10-15T19:56:38.383Z,18.60
2017-10-15T19:59:11.059Z,18.69
2017-10-15T20:01:42.823Z,18.70
2017-10-15T20:04:21.478Z,18.43
2017-10-15T20:06:59.561Z,18.41
2017-10-15T20:09:35.420Z,18.37
2017-10-15T20:12:11.620Z,18.24
2017-10-15T20:14:50.911Z,18.04
2017-10-15T20:17:25.600Z,17.87
2017-10-15T20:19:57.835Z,18.24
2017-10-15T20:22:35.010Z,17.98
2017-10-15T20:25:07.809Z,18.02
2017-10-15T20:27:39.639Z,17.94
2017-10-15T20:30:11.193Z,17.81
2017-10-15T20:32:48.675Z,17.87
2017-10-15T20:35:22.190Z,17.78
2017-10-15T20:37:58.507Z,17.70
2017-10-15T20:43:14.739Z,17.62
2017-10-15T20:45:58.437Z,17.61
2017-10-15T20:48:31.939Z,17.54
2017-10-15T20:53:45.631Z,17.51
2017-10-15T20:56:20.267Z,17.74
2017-10-15T20:58:53.524Z,17.58
2017-10-15T21:01:25.776Z,17.52
2017-10-15T21:04:00.006Z,17.38
2017-10-15T21:06:45.298Z,17.64
2017-10-15T21:09:23.417Z,17.58
2017-10-15T21:12:00.051Z,17.42
2017-10-15T21:14:34.619Z,17.69
2017-10-15T21:17:09.008Z,17.38
2017-10-15T21:19:44.451Z,17.49
2017-10-15T21:22:16.337Z,17.62
2017-10-15T21:24:50.342Z,17.75
2017-10-15T21:27:22.732Z,17.68
2017-10-15T21:29:54.205Z,18.10
2017-10-15T21:32:32.199Z,17.99
2017-10-15T21:35:08.240Z,18.20
2017-10-15T21:37:48.959Z,18.63
2017-10-15T21:40:22.215Z,18.45
2017-10-15T21:45:33.351Z,17.88
2017-10-15T21:48:09.919Z,17.98
2017-10-15T21:50:41.360Z,17.95
2017-10-15T21:53:21.057Z,17.75
2017-10-15T21:55:56.225Z,17.86
2017-10-15T21:58:28.587Z,17.64
2017-10-15T22:01:02.845Z,17.70
2017-10-15T22:03:34.498Z,17.86
2017-10-15T22:06:08.921Z,18.25
2017-10-15T22:08:40.217Z,18.45
2017-10-15T22:11:12.436Z,18.41
2017-10-15T22:13:43.794Z,18.43
2017-10-15T22:16:14.822Z,18.40
2017-10-15T22:18:51.069Z,18.69
2017-10-15T22:21:29.430Z,18.73
2017-10-15T22:24:00.475Z,18.72
2017-10-15T22:26:34.450Z,18.70
2017-10-15T22:29:04.973Z,18.71
2017-10-15T22:31:36.443Z,18.70
2017-10-15T22:34:09.809Z,18.62
2017-10-15T22:39:25.418Z,18.46
2017-10-15T22:42:04.576Z,18.27
2017-10-15T22:44:44.742Z,18.34
2017-10-15T22:47:16.964Z,17.86
2017-10-15T22:49:58.101Z,18.13
2017-10-15T22:52:31.354Z,18.24
2017-10-15T22:55:07.905Z,17.97
2017-10-15T22:57:46.314Z,18.12
2017-10-15T23:00:23.074Z,18.25
2017-10-15T23:03:05.661Z,18.05
2017-10-15T23:05:47.283Z,18.21
2017-10-15T23:08:32.359Z,18.22
2017-10-15T23:11:26.126Z,17.43
2017-10-15T23:13:57.493Z,17.41
2017-10-15T23:16:32.070Z,17.52
2017-10-15T23:19:06.522Z,17.74
2017-10-15T23:21:37.889Z,17.80
2017-10-15T23:24:14.412Z,17.83
2017-10-15T23:26:47.383Z,18.08
2017-10-15T23:29:19.203Z,17.86
2017-10-15T23:31:57.305Z,17.87
2017-10-15T23:34:39.363Z,17.97
2017-10-15T23:37:14.813Z,17.93
2017-10-15T23:39:47.188Z,17.81
2017-10-15T23:42:21.572Z,17.78
2017-10-15T23:44:55.353Z,17.82
2017-10-15T23:47:28.696Z,17.76
2017-10-15T23:50:09.227Z,17.83
2017-10-15T23:52:45.808Z,17.87
2017-10-15T23:55:18.724Z,17.85
2017-10-15T23:57:51.656Z,17.36
